map of CRE home
CRE - Airport
Location
City:  North Myrtle Beach, South Carolina, United States
Name:Grand Strand Airport
ICAO:KCRE
IATA:CRE
FAA LID:CRE

Details
Type:Airport (Airfield)
Use:Public/Civil
Latitude:3348'42"N (33.811750)
Longitude:7843'26"W (-78.723943)
Datum:WGS 1984
Elevation:31 ft (9 m)
Variation:8.86W (WMM2015 magnetic declination)
-0.05 annual change
Runways:1
Longest:5997 × 100 ft (1828 × 30.5 m), paved

Time
Time Zone:UTC-5 (DST-4)
Local Time:

Weather
METAR:KCRE 111453Z VRB04KT 10SM CLR 06/M01 A3018 RMK AO1 SLP221 T00611011 50001
TAF:KCRE 111129Z 1112/1212 24007KT P6SM SKC
FM120800 23009KT P6SM SKC WS020/25035KT

Related Locations
Nearby:
Farthest:MQZ: 11650 mi / 18749 km
Margaret River [Margaret River Airport], WA, AU

Find:

   beyond  
but within

Other Information
Maps:
NOTAMs:
Links:
Sources:

  
flag of United States
flag of South Carolina
  

Airport Diagram

Airport diagram for CRE

Airport diagram PDF

Sectional Chart

Flight Planning
at skyvector.com

Satellite Image

Google Maps Satellite view

 

Copyright © 2004-2017 Karl L. Swartz. All rights reserved.
The Great Circle Mapper name and logo are trademarks of the Great Circle Mapper.
All other trademarks mentioned herein belong to their respective owners.
Please see credits for attibutions and further copyright information.

  Follow gcmap on Facebook Follow gcmap on Twitter Follow gcmap on Google+ GCmap on LinkedIn

hCard Microformat

Geo Microformat